Time;durP1;ratioP1;P1;durP2;ratioP2;P2;SDS_P1;SDS_P2;PMS_P1;PMS_P2;Temp;Humidity;BMP_temperature;BMP_pressure;BME280_temperature;BME280_humidity;BME280_pressure;Samples;Min_cycle;Max_cycle;Signal;HPM_P1;HPM_P2
2023/09/19 00:00:41;;;;;;;8.30;3.50;;;22.20;92.80;;;;;;5076478;28;20072;-81
2023/09/19 00:03:10;;;;;;;6.68;3.47;;;22.20;92.90;;;;;;5066799;28;20037;-80
2023/09/19 00:05:38;;;;;;;5.80;3.25;;;22.20;92.80;;;;;;5072154;28;20037;-81
2023/09/19 00:08:06;;;;;;;9.95;3.75;;;22.20;92.80;;;;;;5067394;28;20093;-79
2023/09/19 00:10:36;;;;;;;6.85;3.30;;;22.10;92.80;;;;;;5072454;28;20571;-80
2023/09/19 00:13:05;;;;;;;7.55;3.35;;;22.10;92.90;;;;;;5072950;28;20041;-80
2023/09/19 00:15:41;;;;;;;9.30;5.00;;;22.10;93.00;;;;;;5063794;28;22476;-81
2023/09/19 00:18:08;;;;;;;7.28;3.40;;;22.10;93.00;;;;;;5069535;28;20139;-80
2023/09/19 00:20:38;;;;;;;10.10;4.00;;;22.10;93.10;;;;;;5068881;28;20041;-81
2023/09/19 00:23:08;;;;;;;8.73;3.55;;;22.10;93.10;;;;;;5066597;28;20041;-79
2023/09/19 00:25:36;;;;;;;6.47;3.22;;;22.10;93.20;;;;;;5057944;28;20048;-80
2023/09/19 00:28:06;;;;;;;6.40;3.72;;;22.10;93.20;;;;;;5055802;28;20095;-79
2023/09/19 00:30:38;;;;;;;6.88;3.30;;;22.00;93.20;;;;;;5069538;28;20040;-80
2023/09/19 00:33:07;;;;;;;6.65;3.38;;;22.10;93.40;;;;;;5069940;28;20040;-80
2023/09/19 00:35:34;;;;;;;7.97;3.95;;;22.00;93.40;;;;;;5070927;28;20048;-81
2023/09/19 00:38:03;;;;;;;7.80;3.65;;;22.00;93.50;;;;;;5068277;28;20036;-81
2023/09/19 00:40:30;;;;;;;8.95;4.22;;;22.00;93.70;;;;;;5071112;28;20110;-80
2023/09/19 00:43:01;;;;;;;9.73;3.60;;;22.00;93.80;;;;;;5051875;28;20040;-81
2023/09/19 00:45:29;;;;;;;5.13;3.20;;;22.00;93.90;;;;;;5072744;28;20037;-81
2023/09/19 00:47:57;;;;;;;21.70;4.53;;;21.90;94.00;;;;;;5053609;28;20055;-79
2023/09/19 00:50:27;;;;;;;9.23;4.40;;;22.00;94.20;;;;;;5064251;28;20029;-79
2023/09/19 00:52:57;;;;;;;5.28;3.58;;;22.00;94.40;;;;;;5070394;28;20054;-80
2023/09/19 00:55:26;;;;;;;11.35;3.78;;;21.90;94.50;;;;;;5051308;28;20053;-81
2023/09/19 00:57:56;;;;;;;8.45;3.63;;;21.90;94.60;;;;;;5067681;28;20087;-80
2023/09/19 01:00:24;;;;;;;5.95;4.22;;;21.90;94.70;;;;;;5068821;28;20083;-80
2023/09/19 01:02:52;;;;;;;7.93;4.07;;;21.90;94.80;;;;;;5071490;28;20102;-79
2023/09/19 01:05:19;;;;;;;6.28;3.45;;;21.90;95.30;;;;;;5064603;28;20064;-80
2023/09/19 01:07:49;;;;;;;7.75;3.53;;;21.90;95.20;;;;;;5069022;28;20049;-79
2023/09/19 01:10:20;;;;;;;7.15;3.65;;;21.90;95.30;;;;;;5070951;28;20127;-80
2023/09/19 01:13:27;;;;;;;8.38;3.45;;;21.90;95.40;;;;;;5054026;28;20128;-80
2023/09/19 01:16:07;;;;;;;9.13;3.53;;;21.90;95.50;;;;;;5043556;28;20037;-80
2023/09/19 01:18:40;;;;;;;7.82;3.72;;;21.90;95.80;;;;;;5067777;28;20340;-80
2023/09/19 01:21:19;;;;;;;7.65;3.67;;;21.90;95.80;;;;;;5064398;28;20763;-80
2023/09/19 01:24:24;;;;;;;7.53;4.13;;;21.90;95.70;;;;;;5071906;28;20032;-81
2023/09/19 01:27:14;;;;;;;10.95;4.10;;;21.90;95.90;;;;;;5051967;28;20300;-81
2023/09/19 01:29:47;;;;;;;5.07;3.63;;;21.90;95.90;;;;;;5074757;28;20080;-82
2023/09/19 01:32:21;;;;;;;8.32;4.18;;;21.90;95.90;;;;;;5075116;28;20044;-81
2023/09/19 01:34:53;;;;;;;8.63;4.60;;;21.90;95.80;;;;;;5059580;28;20962;-80
2023/09/19 01:37:25;;;;;;;6.15;3.65;;;21.90;95.90;;;;;;5061201;28;20380;-80
2023/09/19 01:40:16;;;;;;;6.28;3.72;;;21.90;96.00;;;;;;5091902;28;20121;-80
2023/09/19 01:42:55;;;;;;;7.18;3.80;;;21.90;96.00;;;;;;5054777;28;20045;-79
2023/09/19 01:45:28;;;;;;;6.63;4.10;;;21.90;96.20;;;;;;5059243;28;20053;-79
2023/09/19 01:48:01;;;;;;;8.68;3.65;;;21.90;96.20;;;;;;5083300;28;20484;-80
2023/09/19 01:50:41;;;;;;;9.98;3.85;;;21.90;96.30;;;;;;5071510;28;20063;-80
2023/09/19 01:53:28;;;;;;;14.48;5.22;;;21.80;96.30;;;;;;5070385;28;20412;-78
2023/09/19 01:55:56;;;;;;;6.50;3.83;;;21.80;96.50;;;;;;5060323;28;20040;-79
2023/09/19 01:58:47;;;;;;;8.63;3.92;;;21.80;96.50;;;;;;5057795;28;20044;-81
2023/09/19 02:01:22;;;;;;;7.10;3.75;;;21.80;96.60;;;;;;5072272;28;20403;-79
2023/09/19 02:03:50;;;;;;;6.50;4.10;;;21.80;96.70;;;;;;5073471;28;20458;-80
2023/09/19 02:06:19;;;;;;;7.00;3.85;;;21.70;97.00;;;;;;5074477;28;20044;-80
2023/09/19 02:08:47;;;;;;;6.75;3.83;;;21.80;97.00;;;;;;5076369;28;20053;-79
2023/09/19 02:11:14;;;;;;;9.57;4.20;;;21.70;97.10;;;;;;5092712;28;20064;-80
2023/09/19 02:13:43;;;;;;;7.43;3.22;;;21.70;97.20;;;;;;5056452;28;20071;-82
2023/09/19 02:16:12;;;;;;;7.40;4.47;;;21.70;97.20;;;;;;5059226;28;20114;-79
2023/09/19 02:18:39;;;;;;;11.30;5.05;;;21.70;97.30;;;;;;5083007;28;20048;-79
2023/09/19 02:21:06;;;;;;;6.30;3.55;;;21.70;97.30;;;;;;5072726;28;20062;-80
2023/09/19 02:23:34;;;;;;;5.43;3.63;;;21.70;97.30;;;;;;5058470;28;20507;-80
2023/09/19 02:26:01;;;;;;;9.82;4.70;;;21.60;97.40;;;;;;5076539;28;20452;-79
2023/09/19 02:28:30;;;;;;;6.75;3.55;;;21.60;97.40;;;;;;5070754;28;20420;-81
2023/09/19 02:30:58;;;;;;;8.70;3.97;;;21.60;97.50;;;;;;5070377;28;20087;-81
2023/09/19 02:33:25;;;;;;;7.13;4.07;;;21.60;97.50;;;;;;5073415;28;20129;-79
2023/09/19 02:36:00;;;;;;;6.72;3.78;;;21.60;97.70;;;;;;5070639;28;20056;-80
2023/09/19 02:38:28;;;;;;;6.72;3.60;;;21.50;97.80;;;;;;5065177;28;20091;-79
2023/09/19 02:40:56;;;;;;;7.55;4.25;;;21.50;97.90;;;;;;5063498;28;20036;-80
2023/09/19 02:43:23;;;;;;;10.38;4.53;;;21.50;98.00;;;;;;5063142;28;20048;-79
2023/09/19 02:45:53;;;;;;;9.18;4.15;;;21.50;98.10;;;;;;5067401;28;20037;-79
2023/09/19 02:48:21;;;;;;;5.97;3.65;;;21.50;98.20;;;;;;5068103;28;20044;-79
2023/09/19 02:50:52;;;;;;;7.63;4.43;;;21.50;98.40;;;;;;5072851;28;20037;-79
2023/09/19 02:53:19;;;;;;;8.43;4.10;;;21.50;98.50;;;;;;5069400;28;20129;-80
2023/09/19 02:55:49;;;;;;;6.97;4.00;;;21.40;98.50;;;;;;5067185;28;20128;-80
2023/09/19 02:58:18;;;;;;;9.75;3.95;;;21.40;98.50;;;;;;5070624;28;20537;-80
2023/09/19 03:00:47;;;;;;;6.47;4.05;;;21.40;98.70;;;;;;5054777;28;20060;-78
2023/09/19 03:03:18;;;;;;;6.30;3.75;;;21.40;98.70;;;;;;5065611;28;20068;-80
2023/09/19 03:05:47;;;;;;;6.50;3.85;;;21.40;98.80;;;;;;5053683;28;20051;-80
2023/09/19 03:08:17;;;;;;;6.35;3.70;;;21.40;98.80;;;;;;5079396;28;20037;-80
2023/09/19 03:10:50;;;;;;;7.82;4.32;;;21.40;98.90;;;;;;5032027;28;20535;-81
2023/09/19 03:13:17;;;;;;;7.53;3.95;;;21.40;98.90;;;;;;5050480;28;20052;-81
2023/09/19 03:15:47;;;;;;;5.72;3.88;;;21.40;98.90;;;;;;5049431;28;20543;-80
2023/09/19 03:18:17;;;;;;;8.43;4.15;;;21.30;99.10;;;;;;5011348;28;20056;-81
2023/09/19 03:20:55;;;;;;;7.40;4.22;;;21.20;99.10;;;;;;5033004;28;20064;-81
2023/09/19 03:23:23;;;;;;;6.93;3.92;;;21.30;99.30;;;;;;5034306;28;20042;-81
2023/09/19 03:25:52;;;;;;;9.48;3.78;;;21.30;99.40;;;;;;5034795;28;20041;-79
2023/09/19 03:28:21;;;;;;;4.53;3.80;;;21.30;99.40;;;;;;5029496;28;20052;-78
2023/09/19 03:31:03;;;;;;;9.65;4.35;;;21.30;99.40;;;;;;5035769;28;20045;-79
2023/09/19 03:33:33;;;;;;;8.10;4.28;;;21.30;99.40;;;;;;5035422;28;20045;-82
2023/09/19 03:36:04;;;;;;;8.40;3.75;;;21.30;99.30;;;;;;5046515;28;20052;-80
2023/09/19 03:38:34;;;;;;;9.57;4.90;;;21.30;99.50;;;;;;5032752;28;20152;-79
2023/09/19 03:41:02;;;;;;;8.27;4.57;;;21.30;99.30;;;;;;5049937;28;20457;-80
2023/09/19 03:43:31;;;;;;;7.20;3.55;;;21.30;99.50;;;;;;5067987;28;20061;-80
2023/09/19 03:46:03;;;;;;;9.15;4.35;;;21.30;99.40;;;;;;5065154;28;20086;-79
2023/09/19 03:48:33;;;;;;;8.02;3.92;;;21.20;99.60;;;;;;5045416;28;20476;-80
2023/09/19 03:51:02;;;;;;;8.68;4.00;;;21.20;99.70;;;;;;5069975;28;20044;-80
2023/09/19 03:53:29;;;;;;;8.60;4.10;;;21.20;99.80;;;;;;5061186;28;20090;-79
2023/09/19 03:55:57;;;;;;;5.68;3.83;;;21.20;99.60;;;;;;5044382;28;20033;-78
2023/09/19 03:58:24;;;;;;;9.18;4.20;;;21.30;99.70;;;;;;5067286;28;20522;-78
2023/09/19 04:00:55;;;;;;;8.73;4.28;;;21.20;99.70;;;;;;5069853;28;20400;-78
2023/09/19 04:03:28;;;;;;;7.00;3.88;;;21.20;99.90;;;;;;5063467;28;20578;-79
2023/09/19 04:05:55;;;;;;;8.18;4.30;;;21.20;99.90;;;;;;5050005;28;20920;-78
2023/09/19 04:08:22;;;;;;;6.65;3.65;;;21.20;99.90;;;;;;5055478;28;20064;-78
2023/09/19 04:10:51;;;;;;;9.00;3.85;;;21.20;99.90;;;;;;5069344;28;20040;-79
2023/09/19 04:13:18;;;;;;;10.55;4.75;;;21.20;99.90;;;;;;5057035;28;20044;-79
2023/09/19 04:15:46;;;;;;;6.93;3.88;;;21.20;99.90;;;;;;5060659;28;20094;-78
2023/09/19 04:18:13;;;;;;;11.43;5.28;;;21.20;99.90;;;;;;5062501;28;20052;-81
2023/09/19 04:20:41;;;;;;;8.23;4.68;;;21.20;99.90;;;;;;5072374;28;20040;-80
2023/09/19 04:23:09;;;;;;;10.35;4.38;;;21.20;99.90;;;;;;5052879;28;20621;-78
2023/09/19 04:25:37;;;;;;;8.52;4.40;;;21.20;99.90;;;;;;5064288;28;20045;-78
2023/09/19 04:28:06;;;;;;;11.02;5.00;;;21.10;99.90;;;;;;5067513;28;20044;-78
2023/09/19 04:30:33;;;;;;;8.32;4.45;;;21.10;99.90;;;;;;5056304;28;20076;-78
2023/09/19 04:33:01;;;;;;;6.88;4.32;;;21.10;99.90;;;;;;5069236;28;20036;-78
2023/09/19 04:35:32;;;;;;;8.77;4.30;;;21.20;99.90;;;;;;5078412;28;20515;-77
2023/09/19 04:38:00;;;;;;;12.27;5.03;;;21.20;99.90;;;;;;5063550;28;20047;-77
2023/09/19 04:40:27;;;;;;;9.82;4.28;;;21.20;99.90;;;;;;5070422;28;20037;-78
2023/09/19 04:42:57;;;;;;;6.88;4.32;;;21.20;99.90;;;;;;5063260;28;20045;-78
2023/09/19 04:45:29;;;;;;;9.00;4.50;;;21.20;99.90;;;;;;5051658;28;21099;-78
2023/09/19 04:47:56;;;;;;;10.43;4.43;;;21.20;99.90;;;;;;5067864;28;20149;-78
2023/09/19 04:50:26;;;;;;;6.68;4.05;;;21.20;99.90;;;;;;5069676;28;20384;-77
2023/09/19 04:52:54;;;;;;;6.90;4.20;;;21.20;99.90;;;;;;5062725;28;20068;-77
2023/09/19 04:55:21;;;;;;;7.43;4.18;;;21.20;99.90;;;;;;5068885;28;20051;-77
2023/09/19 04:57:50;;;;;;;9.50;4.90;;;21.20;99.90;;;;;;5067567;28;20044;-78
2023/09/19 05:00:23;;;;;;;12.70;5.03;;;21.20;99.90;;;;;;5063094;28;20080;-78
2023/09/19 05:02:51;;;;;;;9.70;4.80;;;21.20;99.90;;;;;;5070496;28;20056;-77
2023/09/19 05:05:19;;;;;;;6.65;4.18;;;21.20;99.90;;;;;;5063997;28;20491;-78
2023/09/19 05:07:46;;;;;;;9.77;4.88;;;21.20;99.90;;;;;;5068848;28;20040;-78
2023/09/19 05:10:14;;;;;;;12.93;5.80;;;21.20;99.90;;;;;;5060407;28;20041;-78
2023/09/19 05:12:45;;;;;;;11.07;5.00;;;21.20;99.90;;;;;;5068612;28;20040;-79
2023/09/19 05:15:12;;;;;;;8.82;5.18;;;21.20;99.90;;;;;;5050229;28;20459;-80
2023/09/19 05:17:39;;;;;;;7.50;4.22;;;21.20;99.90;;;;;;5068014;28;20080;-80
2023/09/19 05:20:15;;;;;;;4.80;1.85;;;21.20;99.90;;;;;;5052810;28;21885;-80
2023/09/19 05:22:43;;;;;;;2.92;1.08;;;21.00;99.90;;;;;;5080139;28;20045;-80
2023/09/19 05:25:11;;;;;;;3.08;0.90;;;21.00;99.90;;;;;;5052798;28;20044;-80
2023/09/19 05:27:38;;;;;;;2.38;0.65;;;21.00;99.90;;;;;;5054004;28;20044;-79
2023/09/19 05:30:07;;;;;;;2.22;0.30;;;21.00;99.90;;;;;;5069773;28;20052;-78
2023/09/19 05:32:34;;;;;;;1.65;0.30;;;21.00;99.90;;;;;;5053027;28;20048;-79
2023/09/19 05:35:01;;;;;;;3.03;0.30;;;21.00;99.90;;;;;;5070947;28;20033;-81
2023/09/19 05:37:29;;;;;;;3.33;0.40;;;21.00;99.90;;;;;;5049891;28;20056;-80
2023/09/19 05:39:57;;;;;;;3.95;0.30;;;21.00;99.90;;;;;;5063196;28;20051;-83
2023/09/19 05:42:24;;;;;;;0.70;0.20;;;21.00;99.90;;;;;;5059088;28;20068;-80
2023/09/19 05:44:51;;;;;;;2.03;0.30;;;20.80;99.90;;;;;;5062764;28;20048;-82
2023/09/19 05:47:19;;;;;;;3.38;0.20;;;20.80;99.90;;;;;;5066334;28;20441;-79
2023/09/19 05:49:47;;;;;;;2.67;0.20;;;20.80;99.90;;;;;;5066781;28;20134;-82
2023/09/19 05:52:16;;;;;;;1.10;0.22;;;20.70;99.90;;;;;;5062886;28;20049;-78
2023/09/19 05:54:43;;;;;;;2.75;0.30;;;20.60;99.90;;;;;;5080990;28;20072;-80
2023/09/19 05:57:12;;;;;;;1.55;0.10;;;20.70;99.90;;;;;;5043993;28;20045;-81
2023/09/19 05:59:39;;;;;;;1.88;0.10;;;20.80;99.90;;;;;;5067061;28;20122;-82
2023/09/19 06:02:07;;;;;;;3.20;0.50;;;20.70;99.90;;;;;;5046485;28;20060;-80
2023/09/19 06:04:34;;;;;;;2.70;0.13;;;20.70;99.90;;;;;;5062521;28;20365;-80
2023/09/19 06:07:03;;;;;;;1.27;0.10;;;20.60;99.90;;;;;;5064116;28;20111;-80
2023/09/19 06:09:31;;;;;;;0.63;0.10;;;20.70;99.90;;;;;;5072616;28;20473;-81
2023/09/19 06:12:03;;;;;;;0.88;0.10;;;20.70;99.90;;;;;;5059524;28;20919;-82
2023/09/19 06:14:30;;;;;;;1.00;0.10;;;20.60;99.90;;;;;;5072096;28;20960;-80
2023/09/19 06:16:57;;;;;;;3.10;0.55;;;20.70;99.90;;;;;;5070205;28;20053;-80
2023/09/19 06:19:25;;;;;;;2.17;0.20;;;20.60;99.90;;;;;;5056439;28;20133;-79
2023/09/19 06:21:56;;;;;;;0.93;0.10;;;20.50;99.90;;;;;;5073009;28;20115;-79
2023/09/19 06:24:23;;;;;;;1.95;0.20;;;20.50;99.90;;;;;;5051992;28;20044;-79
2023/09/19 06:26:50;;;;;;;1.75;0.00;;;20.40;99.90;;;;;;5049354;28;20048;-79
2023/09/19 06:29:17;;;;;;;1.42;0.30;;;20.50;99.90;;;;;;5073696;28;20062;-78
2023/09/19 06:31:44;;;;;;;1.10;0.10;;;20.60;99.90;;;;;;5068589;28;20395;-80
2023/09/19 06:34:15;;;;;;;0.68;0.10;;;20.40;99.90;;;;;;5078133;28;20060;-83
2023/09/19 06:36:43;;;;;;;1.15;0.10;;;20.50;99.90;;;;;;5059256;28;20048;-79
2023/09/19 06:39:10;;;;;;;0.60;0.10;;;20.30;99.90;;;;;;5071453;28;20067;-79
2023/09/19 06:41:39;;;;;;;1.50;0.10;;;20.40;99.90;;;;;;5054287;28;20047;-79
2023/09/19 06:44:10;;;;;;;0.77;0.10;;;20.30;99.90;;;;;;5069021;28;20041;-79
2023/09/19 06:46:39;;;;;;;0.50;0.10;;;20.50;99.90;;;;;;5069628;28;20047;-79
2023/09/19 06:49:06;;;;;;;0.98;0.30;;;20.40;99.90;;;;;;5063646;28;20024;-79
2023/09/19 06:51:34;;;;;;;0.95;0.10;;;20.30;99.90;;;;;;5081314;28;20086;-81
2023/09/19 06:54:02;;;;;;;0.63;0.10;;;20.30;99.90;;;;;;5064820;28;20036;-79
2023/09/19 06:56:29;;;;;;;1.80;0.35;;;20.30;99.90;;;;;;5049649;28;20114;-80
2023/09/19 06:58:56;;;;;;;3.35;0.20;;;20.30;99.90;;;;;;5052015;28;20041;-78
2023/09/19 07:01:24;;;;;;;0.73;0.43;;;20.30;99.90;;;;;;5065235;28;20040;-79
2023/09/19 07:03:52;;;;;;;0.75;0.20;;;20.30;99.90;;;;;;5063745;28;20041;-79
2023/09/19 07:06:19;;;;;;;0.85;0.10;;;20.20;99.90;;;;;;5071677;28;20041;-78
2023/09/19 07:08:46;;;;;;;1.23;0.20;;;20.30;99.90;;;;;;5065935;28;20094;-80
2023/09/19 07:11:13;;;;;;;1.20;0.20;;;20.20;99.90;;;;;;5070526;28;20068;-78
2023/09/19 07:13:41;;;;;;;1.35;0.10;;;20.30;99.90;;;;;;5076955;28;20037;-79
2023/09/19 07:16:10;;;;;;;2.00;0.20;;;20.20;99.90;;;;;;5068678;28;20041;-80
2023/09/19 07:18:37;;;;;;;2.85;0.17;;;20.20;99.90;;;;;;5066268;28;20544;-81
2023/09/19 07:21:05;;;;;;;1.08;0.20;;;20.20;99.90;;;;;;5061618;28;20504;-80
2023/09/19 07:23:34;;;;;;;0.88;0.10;;;20.20;99.90;;;;;;5055940;28;20055;-80
2023/09/19 07:26:05;;;;;;;1.13;0.20;;;20.00;99.90;;;;;;5067404;28;20048;-81
2023/09/19 07:28:33;;;;;;;1.17;0.20;;;20.10;99.90;;;;;;5066487;28;20037;-81
2023/09/19 07:31:05;;;;;;;1.25;0.20;;;20.00;99.90;;;;;;5066272;28;20387;-81
2023/09/19 07:33:32;;;;;;;0.53;0.10;;;20.10;99.90;;;;;;5065244;28;20044;-80
2023/09/19 07:35:59;;;;;;;0.85;0.10;;;20.10;99.90;;;;;;5064409;28;20372;-81
2023/09/19 07:38:28;;;;;;;0.70;0.10;;;20.10;99.90;;;;;;5061903;28;20067;-80
2023/09/19 07:41:05;;;;;;;1.20;0.22;;;20.10;99.90;;;;;;5061479;28;20063;-79
2023/09/19 07:43:33;;;;;;;0.95;0.10;;;20.30;99.90;;;;;;5067885;28;20036;-80
2023/09/19 07:46:08;;;;;;;0.20;0.10;;;20.10;99.90;;;;;;5056979;28;20051;-82
2023/09/19 07:48:38;;;;;;;1.50;0.10;;;20.20;99.90;;;;;;5071105;28;20052;-84
2023/09/19 07:51:08;;;;;;;0.30;0.20;;;20.10;99.90;;;;;;5068123;28;20073;-85
2023/09/19 07:53:36;;;;;;;4.95;0.55;;;20.20;99.90;;;;;;5050823;28;20450;-84
2023/09/19 07:56:09;;;;;;;0.90;0.10;;;20.30;99.90;;;;;;5068714;28;20044;-86
2023/09/19 07:58:40;;;;;;;0.75;0.10;;;20.30;99.90;;;;;;5055997;28;20053;-84
2023/09/19 08:01:10;;;;;;;0.22;0.10;;;20.30;99.90;;;;;;5057218;28;20135;-84
2023/09/19 08:03:41;;;;;;;0.70;0.20;;;20.30;99.90;;;;;;5074273;28;20040;-84
2023/09/19 08:06:09;;;;;;;0.70;0.10;;;20.40;99.90;;;;;;5076043;28;20041;-84
2023/09/19 08:08:37;;;;;;;2.58;0.20;;;20.50;99.90;;;;;;5057015;28;20049;-85
2023/09/19 08:11:12;;;;;;;1.55;0.32;;;20.50;99.90;;;;;;5073092;28;20044;-84
2023/09/19 08:13:43;;;;;;;2.83;0.30;;;20.40;99.90;;;;;;5060351;28;20051;-85
2023/09/19 08:16:11;;;;;;;1.10;0.20;;;20.20;99.90;;;;;;5054457;28;20071;-84
2023/09/19 08:18:41;;;;;;;1.35;0.20;;;20.40;99.90;;;;;;5057241;28;20041;-84
2023/09/19 08:21:11;;;;;;;1.15;0.20;;;20.40;99.90;;;;;;5065458;28;20041;-83
2023/09/19 08:23:40;;;;;;;0.73;0.10;;;20.50;99.90;;;;;;5064858;28;20507;-84
2023/09/19 08:26:08;;;;;;;0.63;0.10;;;20.50;99.90;;;;;;5074556;28;20041;-84
2023/09/19 08:28:36;;;;;;;1.52;0.55;;;20.40;99.90;;;;;;5061114;28;20052;-83
2023/09/19 08:31:05;;;;;;;0.75;0.10;;;20.30;99.90;;;;;;5054518;28;20036;-83
2023/09/19 08:33:35;;;;;;;2.33;0.20;;;20.30;99.90;;;;;;5073018;28;20041;-84
2023/09/19 08:36:06;;;;;;;0.88;0.20;;;20.30;99.90;;;;;;5070701;28;20098;-83
2023/09/19 08:38:34;;;;;;;1.80;0.10;;;20.40;99.90;;;;;;5072978;28;20040;-83
2023/09/19 08:41:07;;;;;;;1.00;0.30;;;20.40;99.90;;;;;;5055307;28;20124;-83
2023/09/19 08:43:34;;;;;;;2.97;0.20;;;20.30;99.90;;;;;;5065484;28;20157;-82
2023/09/19 08:46:05;;;;;;;0.63;0.20;;;20.40;99.90;;;;;;5072498;28;20116;-83
2023/09/19 08:48:34;;;;;;;1.58;0.30;;;20.10;99.90;;;;;;5065068;28;20052;-82
2023/09/19 08:51:14;;;;;;;1.90;0.20;;;20.20;99.90;;;;;;5068693;28;20040;-82
2023/09/19 08:53:52;;;;;;;1.77;0.30;;;20.10;99.90;;;;;;5044872;28;20093;-82
2023/09/19 08:56:22;;;;;;;1.27;0.20;;;20.10;99.90;;;;;;5073277;28;20063;-82
2023/09/19 08:58:58;;;;;;;1.52;0.20;;;20.20;99.90;;;;;;5068840;28;20044;-82
2023/09/19 09:01:32;;;;;;;1.88;0.20;;;20.20;99.90;;;;;;5036389;28;20041;-81
2023/09/19 09:04:01;;;;;;;1.25;0.20;;;20.10;99.90;;;;;;5070763;28;20032;-81
2023/09/19 09:06:29;;;;;;;0.90;0.43;;;20.10;99.90;;;;;;5068509;28;20029;-84
2023/09/19 09:08:57;;;;;;;1.38;0.40;;;20.10;99.90;;;;;;5066866;28;20051;-81
2023/09/19 09:11:25;;;;;;;1.15;0.40;;;20.20;99.90;;;;;;5056258;28;20048;-82
2023/09/19 09:13:52;;;;;;;0.95;0.30;;;20.20;99.90;;;;;;5050023;28;20116;-82
2023/09/19 09:16:19;;;;;;;1.10;0.30;;;20.10;99.90;;;;;;5053239;28;20040;-83
2023/09/19 09:18:54;;;;;;;1.45;0.30;;;20.10;99.90;;;;;;5051839;28;20048;-85
2023/09/19 09:21:24;;;;;;;1.27;0.30;;;20.00;99.90;;;;;;5015919;28;20048;-83
2023/09/19 09:23:53;;;;;;;3.22;0.40;;;20.00;99.90;;;;;;5013830;28;20058;-84
2023/09/19 09:26:43;;;;;;;2.20;0.50;;;20.00;99.90;;;;;;4994134;28;20042;-83
2023/09/19 09:29:13;;;;;;;1.38;0.30;;;20.00;99.90;;;;;;5004768;28;20049;-84
2023/09/19 09:31:45;;;;;;;1.40;0.20;;;19.90;99.90;;;;;;5013969;28;20108;-84
2023/09/19 09:34:13;;;;;;;1.10;0.40;;;20.00;99.90;;;;;;5011170;28;20038;-82
2023/09/19 09:36:41;;;;;;;1.95;0.22;;;20.00;99.90;;;;;;5010838;28;20097;-82
2023/09/19 09:39:18;;;;;;;2.25;0.50;;;20.10;99.90;;;;;;4994259;28;20056;-82
2023/09/19 09:41:46;;;;;;;0.95;0.40;;;20.20;99.90;;;;;;5009676;28;20038;-84
2023/09/19 09:44:18;;;;;;;1.63;0.30;;;20.40;99.90;;;;;;5000568;28;20038;-82
2023/09/19 09:47:36;;;;;;;2.95;0.60;;;20.60;99.90;;;;;;5007131;28;20125;-82
2023/09/19 09:49:35;;;;;;;2.92;0.30;;;20.90;99.90;;;;;;5026428;28;20047;-83
2023/09/19 09:52:23;;;;;;;1.95;0.40;;;21.00;99.90;;;;;;5029579;28;20172;-82
2023/09/19 09:55:05;;;;;;;0.50;0.20;;;21.10;99.90;;;;;;5075068;28;20045;-84
2023/09/19 09:57:34;;;;;;;1.95;0.50;;;21.10;99.90;;;;;;5070417;28;20091;-83
2023/09/19 10:02:40;;;;;;;2.10;0.80;;;20.90;99.90;;;;;;5070451;28;20503;-80
2023/09/19 10:07:53;;;;;;;3.95;0.80;;;20.80;99.90;;;;;;5055496;28;20554;-81
2023/09/19 10:13:18;;;;;;;2.97;0.88;;;20.90;99.90;;;;;;5068323;28;20045;-81
2023/09/19 10:15:50;;;;;;;2.85;1.05;;;21.10;99.90;;;;;;5052435;28;20068;-82
2023/09/19 10:18:23;;;;;;;2.30;1.33;;;21.20;99.90;;;;;;5073849;28;20036;-80
2023/09/19 10:20:51;;;;;;;2.90;1.10;;;21.40;99.90;;;;;;5074027;28;20128;-79
2023/09/19 10:23:23;;;;;;;2.00;1.15;;;21.50;99.90;;;;;;5085126;28;20052;-80
2023/09/19 10:25:51;;;;;;;;;;;21.50;99.90;;;;;;5072556;28;20102;-81
2023/09/19 10:28:23;;;;;;;3.83;0.98;;;21.40;99.90;;;;;;5052152;28;19974;-80
2023/09/19 10:30:52;;;;;;;2.70;1.08;;;21.20;99.90;;;;;;5081484;28;20086;-80
2023/09/19 10:33:21;;;;;;;2.65;1.50;;;21.10;99.90;;;;;;5057329;28;20036;-83
2023/09/19 10:35:56;;;;;;;2.67;1.10;;;21.00;99.90;;;;;;5070266;28;20059;-80
2023/09/19 10:38:25;;;;;;;3.35;1.20;;;21.10;99.90;;;;;;5071812;28;20052;-80
2023/09/19 10:40:59;;;;;;;2.58;1.20;;;21.10;99.90;;;;;;5070775;28;20043;-79
2023/09/19 10:43:32;;;;;;;5.28;1.63;;;21.20;99.90;;;;;;5065622;28;20752;-80
2023/09/19 10:46:07;;;;;;;2.75;1.42;;;21.20;99.90;;;;;;5034321;28;20132;-81
2023/09/19 10:48:35;;;;;;;2.72;1.40;;;21.20;99.90;;;;;;5065764;28;20045;-81
2023/09/19 10:51:13;;;;;;;2.63;1.30;;;21.40;99.90;;;;;;5067676;28;20095;-81
2023/09/19 10:53:55;;;;;;;2.58;1.58;;;21.40;99.90;;;;;;5070847;28;20045;-81
2023/09/19 10:56:32;;;;;;;2.50;1.33;;;21.30;99.90;;;;;;5072752;28;20086;-80
2023/09/19 10:59:18;;;;;;;2.40;1.42;;;21.20;99.90;;;;;;5069201;28;20044;-80
2023/09/19 11:01:52;;;;;;;3.72;1.65;;;21.30;99.90;;;;;;5066279;28;20041;-81
2023/09/19 11:04:39;;;;;;;2.58;1.75;;;21.30;99.90;;;;;;5054601;28;20086;-80
2023/09/19 11:07:12;;;;;;;1.83;1.38;;;21.20;99.90;;;;;;5051250;28;20134;-80
2023/09/19 11:10:01;;;;;;;4.85;1.95;;;21.30;99.90;;;;;;5069149;28;20045;-81
2023/09/19 11:12:40;;;;;;;4.45;1.90;;;21.40;99.90;;;;;;5084332;28;20053;-83
2023/09/19 11:15:10;;;;;;;3.10;1.58;;;21.40;99.90;;;;;;5074603;28;21012;-80
2023/09/19 11:17:47;;;;;;;2.75;1.63;;;21.60;99.90;;;;;;5052681;28;20052;-82
2023/09/19 11:20:24;;;;;;;3.10;1.50;;;21.90;99.90;;;;;;5068245;28;20449;-80
2023/09/19 11:22:58;;;;;;;2.28;1.73;;;22.00;99.90;;;;;;5051389;28;20393;-81
2023/09/19 11:25:38;;;;;;;2.55;1.67;;;22.30;99.90;;;;;;5064800;28;20115;-81
2023/09/19 11:28:18;;;;;;;2.50;1.48;;;22.30;99.90;;;;;;5068871;28;20241;-82
2023/09/19 11:30:48;;;;;;;1.60;1.33;;;22.50;99.90;;;;;;5072671;28;20098;-83
2023/09/19 11:33:31;;;;;;;3.72;1.42;;;22.40;99.90;;;;;;5082063;28;20045;-81
2023/09/19 11:36:05;;;;;;;1.60;1.50;;;22.30;99.90;;;;;;5080839;28;20132;-81
2023/09/19 11:38:43;;;;;;;1.83;1.02;;;22.30;99.90;;;;;;5084631;28;20055;-82
2023/09/19 11:41:25;;;;;;;2.22;0.90;;;22.50;99.90;;;;;;5057522;28;20041;-82
2023/09/19 11:44:12;;;;;;;1.27;0.60;;;22.60;99.90;;;;;;5053949;28;20046;-81
2023/09/19 11:46:52;;;;;;;1.65;0.70;;;22.70;99.90;;;;;;5070102;28;20118;-82
2023/09/19 11:49:29;;;;;;;2.40;0.73;;;23.00;99.90;;;;;;5065433;28;20052;-80
2023/09/19 11:52:00;;;;;;;1.73;0.35;;;22.60;99.90;;;;;;5071542;28;20045;-83
2023/09/19 11:54:31;;;;;;;1.48;0.38;;;22.60;99.90;;;;;;5067661;28;20071;-81
2023/09/19 11:56:59;;;;;;;0.80;0.40;;;22.60;99.90;;;;;;5088502;28;20080;-81
2023/09/19 11:59:29;;;;;;;1.40;0.30;;;22.60;99.90;;;;;;5067022;28;20103;-82
2023/09/19 12:02:08;;;;;;;1.05;0.20;;;22.30;99.90;;;;;;5070117;28;20074;-82
2023/09/19 12:04:37;;;;;;;1.50;0.30;;;22.30;99.70;;;;;;5067902;28;20064;-81
2023/09/19 12:07:15;;;;;;;1.52;0.20;;;22.50;99.90;;;;;;5064976;28;20064;-81
2023/09/19 12:09:50;;;;;;;2.83;1.00;;;22.80;98.70;;;;;;5053092;28;20132;-80
2023/09/19 12:12:27;;;;;;;0.98;0.30;;;22.60;98.10;;;;;;5070201;28;20531;-81
2023/09/19 12:14:58;;;;;;;0.45;0.20;;;22.40;97.70;;;;;;5063412;28;20040;-81
2023/09/19 12:17:36;;;;;;;0.90;0.20;;;22.40;98.20;;;;;;5072639;28;20033;-81
2023/09/19 12:20:13;;;;;;;1.25;0.20;;;22.50;97.70;;;;;;5066867;28;20033;-81
2023/09/19 12:22:43;;;;;;;0.63;0.10;;;22.70;97.80;;;;;;5073756;28;20037;-80
2023/09/19 12:25:11;;;;;;;2.15;0.30;;;22.90;97.30;;;;;;5067659;28;20044;-82
2023/09/19 12:27:43;;;;;;;0.80;0.30;;;23.00;96.30;;;;;;5072237;28;20080;-82
2023/09/19 12:30:14;;;;;;;1.55;0.30;;;23.10;96.80;;;;;;5044736;28;20040;-82
2023/09/19 12:32:55;;;;;;;1.73;0.28;;;23.10;96.00;;;;;;5051064;28;20048;-81
2023/09/19 12:35:31;;;;;;;2.50;0.30;;;23.10;96.10;;;;;;5063989;28;20295;-81
2023/09/19 12:37:59;;;;;;;2.67;0.95;;;23.20;96.10;;;;;;5054004;28;20048;-81
2023/09/19 12:40:32;;;;;;;0.65;0.20;;;23.30;96.30;;;;;;5063147;28;20065;-82
2023/09/19 12:43:04;;;;;;;1.67;0.20;;;23.10;96.60;;;;;;5060467;28;20044;-82
2023/09/19 12:45:37;;;;;;;1.58;0.30;;;23.00;97.30;;;;;;5062803;28;20549;-82
2023/09/19 12:48:21;;;;;;;;;;;23.10;97.30;;;;;;5066183;28;20036;-83
2023/09/19 12:51:10;;;;;;;1.75;0.40;;;23.30;97.20;;;;;;5068692;28;20306;-81
2023/09/19 12:53:43;;;;;;;1.02;0.30;;;23.50;96.10;;;;;;5045899;28;20117;-81
2023/09/19 12:56:16;;;;;;;1.85;0.40;;;23.50;94.90;;;;;;5069885;28;20056;-81
2023/09/19 12:58:50;;;;;;;1.52;0.40;;;23.60;95.50;;;;;;5069896;28;20040;-82
2023/09/19 13:01:18;;;;;;;1.88;0.40;;;23.50;94.20;;;;;;5075441;28;20040;-80
2023/09/19 13:03:45;;;;;;;2.72;0.47;;;23.40;94.00;;;;;;5056372;28;20054;-81
2023/09/19 13:06:16;;;;;;;1.80;0.40;;;23.30;93.70;;;;;;5063549;28;20064;-81
2023/09/19 13:08:49;;;;;;;2.25;0.40;;;23.20;93.70;;;;;;5068953;28;20037;-80
2023/09/19 13:11:20;;;;;;;1.63;0.50;;;23.40;94.70;;;;;;5058536;28;20052;-80
2023/09/19 13:13:54;;;;;;;3.28;0.40;;;23.40;94.60;;;;;;5080447;28;20045;-80
2023/09/19 13:16:23;;;;;;;1.40;0.30;;;23.40;94.50;;;;;;5070406;28;20036;-81